createdAt,value
2019-02-18T00:00:40.032Z,1.50
2019-02-18T00:03:08.746Z,1.30
2019-02-18T00:05:37.174Z,2.22
2019-02-18T00:08:05.761Z,4.00
2019-02-18T00:10:34.396Z,2.62
2019-02-18T00:13:02.850Z,2.42
2019-02-18T00:15:31.273Z,0.85
2019-02-18T00:17:59.691Z,1.67
2019-02-18T00:20:28.110Z,1.67
2019-02-18T00:22:56.528Z,0.93
2019-02-18T00:25:25.166Z,1.25
2019-02-18T00:27:53.871Z,1.77
2019-02-18T00:30:22.290Z,0.98
2019-02-18T00:32:50.919Z,0.90
2019-02-18T00:35:19.382Z,2.45
2019-02-18T00:37:47.799Z,4.87
2019-02-18T00:40:16.221Z,0.70
2019-02-18T00:42:44.871Z,1.35
2019-02-18T00:45:13.729Z,4.45
2019-02-18T00:47:42.417Z,1.70
2019-02-18T00:50:11.937Z,1.32
2019-02-18T00:52:40.611Z,0.65
2019-02-18T00:55:09.908Z,0.90
2019-02-18T00:57:38.323Z,1.12
2019-02-18T01:00:15.567Z,1.20
2019-02-18T01:02:43.977Z,1.25
2019-02-18T01:05:12.650Z,0.90
2019-02-18T01:07:41.418Z,4.05
2019-02-18T01:10:11.929Z,0.70
2019-02-18T01:12:40.333Z,1.67
2019-02-18T01:15:11.851Z,2.25
2019-02-18T01:17:40.262Z,4.00
2019-02-18T01:20:11.879Z,1.70
2019-02-18T01:22:40.298Z,1.05
2019-02-18T01:25:11.527Z,1.25
2019-02-18T01:27:39.928Z,4.67
2019-02-18T01:30:12.158Z,0.60
2019-02-18T01:32:40.560Z,0.50
2019-02-18T01:35:09.125Z,0.90
2019-02-18T01:37:45.210Z,0.60
2019-02-18T01:40:15.252Z,0.55
2019-02-18T01:42:43.669Z,0.70
2019-02-18T01:45:15.069Z,1.52
2019-02-18T01:47:43.503Z,0.65
2019-02-18T01:50:13.900Z,1.10
2019-02-18T01:52:42.325Z,0.98
2019-02-18T01:55:12.423Z,0.88
2019-02-18T01:57:41.093Z,0.60
2019-02-18T02:00:14.704Z,4.17
2019-02-18T02:02:43.164Z,0.62
2019-02-18T02:05:14.586Z,0.60
2019-02-18T02:07:43.078Z,1.65
2019-02-18T02:10:13.520Z,2.15
2019-02-18T02:12:41.940Z,0.40
2019-02-18T02:15:13.434Z,0.82
2019-02-18T02:17:41.856Z,0.90
2019-02-18T02:20:10.400Z,0.70
2019-02-18T02:22:38.826Z,0.90
2019-02-18T02:25:07.318Z,1.40
2019-02-18T02:27:35.967Z,0.60
2019-02-18T02:30:06.831Z,1.47
2019-02-18T02:32:35.249Z,0.60
2019-02-18T02:35:03.797Z,1.10
2019-02-18T02:37:32.463Z,2.30
2019-02-18T02:40:01.129Z,1.05
2019-02-18T02:42:29.765Z,0.72
2019-02-18T02:44:58.217Z,1.55
2019-02-18T02:47:26.629Z,1.07
2019-02-18T02:49:55.043Z,0.68
2019-02-18T02:52:23.463Z,0.95
2019-02-18T02:54:52.125Z,0.70
2019-02-18T02:57:20.553Z,0.80
2019-02-18T02:59:48.961Z,0.95
2019-02-18T03:02:17.386Z,0.85
2019-02-18T03:04:46.422Z,0.78
2019-02-18T03:07:14.847Z,0.50
2019-02-18T03:09:43.253Z,1.17
2019-02-18T03:12:11.682Z,1.07
2019-02-18T03:14:40.089Z,0.62
2019-02-18T03:17:08.840Z,2.50
2019-02-18T03:19:37.483Z,0.72
2019-02-18T03:22:05.947Z,0.62
2019-02-18T03:24:34.605Z,0.60
2019-02-18T03:27:03.026Z,1.15
2019-02-18T03:29:42.730Z,0.75
2019-02-18T03:32:11.151Z,0.60
2019-02-18T03:34:39.896Z,0.53
2019-02-18T03:37:08.306Z,0.50
2019-02-18T03:39:36.731Z,1.05
2019-02-18T03:42:05.384Z,1.90
2019-02-18T03:44:33.802Z,0.78
2019-02-18T03:47:02.222Z,0.70
2019-02-18T03:49:30.852Z,0.80
2019-02-18T03:51:59.314Z,1.77
2019-02-18T03:54:27.730Z,0.40
2019-02-18T03:56:56.144Z,0.62
2019-02-18T03:59:24.565Z,0.88
2019-02-18T04:01:53.107Z,0.95
2019-02-18T04:04:21.761Z,3.50
2019-02-18T04:06:50.215Z,0.50
2019-02-18T04:09:18.638Z,0.57
2019-02-18T04:11:47.054Z,1.87
2019-02-18T04:14:15.464Z,0.75
2019-02-18T04:16:44.129Z,0.60
2019-02-18T04:19:12.770Z,1.65
2019-02-18T04:21:41.209Z,1.10
2019-02-18T04:24:09.630Z,4.28
2019-02-18T04:26:39.678Z,1.10
2019-02-18T04:29:08.102Z,5.42
2019-02-18T04:31:36.755Z,0.65
2019-02-18T04:34:05.172Z,0.65
2019-02-18T04:36:33.595Z,4.25
2019-02-18T04:39:02.013Z,0.80
2019-02-18T04:41:30.693Z,2.87
2019-02-18T04:43:59.105Z,1.40
2019-02-18T04:46:27.768Z,0.90
2019-02-18T04:48:56.198Z,0.60
2019-02-18T04:51:24.606Z,0.90
2019-02-18T04:53:53.019Z,0.60
2019-02-18T04:56:21.701Z,6.58
2019-02-18T04:58:50.127Z,1.30
2019-02-18T05:01:18.766Z,1.95
2019-02-18T05:03:47.219Z,1.05
2019-02-18T05:06:15.642Z,4.22
2019-02-18T05:08:44.060Z,4.65
2019-02-18T05:11:12.477Z,1.75
2019-02-18T05:13:40.890Z,0.60
2019-02-18T05:16:09.569Z,0.70
2019-02-18T05:18:37.982Z,2.60
2019-02-18T05:21:06.401Z,1.32
2019-02-18T05:23:35.072Z,7.70
2019-02-18T05:26:03.748Z,4.55
2019-02-18T05:28:32.154Z,1.10
2019-02-18T05:31:00.578Z,1.22
2019-02-18T05:33:29.251Z,1.67
2019-02-18T05:35:57.671Z,0.85
2019-02-18T05:38:26.079Z,2.58
2019-02-18T05:40:54.502Z,1.00
2019-02-18T05:43:22.936Z,1.35
2019-02-18T05:45:51.422Z,1.15
2019-02-18T05:48:20.086Z,2.10
2019-02-18T05:50:48.733Z,3.02
2019-02-18T05:53:17.178Z,3.50
2019-02-18T05:55:45.607Z,9.20
2019-02-18T05:58:14.022Z,0.90
2019-02-18T06:00:42.455Z,2.12
2019-02-18T06:03:10.868Z,1.90
2019-02-18T06:05:39.508Z,6.87
2019-02-18T06:08:07.961Z,4.20
2019-02-18T06:10:36.452Z,2.08
2019-02-18T06:13:05.110Z,5.40
2019-02-18T06:15:33.544Z,2.55
2019-02-18T06:18:01.953Z,4.40
2019-02-18T06:20:30.640Z,4.45
2019-02-18T06:22:59.311Z,5.80
2019-02-18T06:25:27.729Z,15.85
2019-02-18T06:27:56.396Z,5.20
2019-02-18T06:30:24.807Z,7.10
2019-02-18T06:32:53.453Z,8.58
2019-02-18T06:35:21.909Z,3.40
2019-02-18T06:37:50.629Z,4.83
2019-02-18T06:40:19.095Z,6.33
2019-02-18T06:42:47.514Z,2.37
2019-02-18T06:45:33.977Z,2.22
2019-02-18T06:48:07.220Z,7.92
2019-02-18T06:50:35.885Z,2.45
2019-02-18T06:53:04.680Z,8.90
2019-02-18T06:55:33.630Z,6.00
2019-02-18T06:58:09.406Z,2.35
2019-02-18T07:00:39.471Z,3.60
2019-02-18T07:03:15.314Z,3.77
2019-02-18T07:05:45.382Z,16.50
2019-02-18T07:08:15.433Z,2.85
2019-02-18T07:10:45.502Z,4.37
2019-02-18T07:13:13.913Z,5.90
2019-02-18T07:15:42.387Z,7.92
2019-02-18T07:18:10.822Z,3.30
2019-02-18T07:20:39.479Z,5.58
2019-02-18T07:23:08.147Z,3.90
2019-02-18T07:25:36.561Z,5.85
2019-02-18T07:28:04.994Z,2.15
2019-02-18T07:30:33.401Z,4.67
2019-02-18T07:33:01.826Z,8.20
2019-02-18T07:35:30.490Z,4.50
2019-02-18T07:37:59.144Z,5.10
2019-02-18T07:40:27.818Z,3.87
2019-02-18T07:42:56.241Z,8.55
2019-02-18T07:45:24.919Z,3.20
2019-02-18T07:47:53.329Z,6.40
2019-02-18T07:50:21.743Z,5.12
2019-02-18T07:52:50.385Z,5.03
2019-02-18T07:55:19.094Z,6.20
2019-02-18T07:57:47.511Z,10.82
2019-02-18T08:00:15.925Z,5.90
2019-02-18T08:02:44.608Z,5.12
2019-02-18T08:05:13.275Z,3.75
2019-02-18T08:07:41.703Z,3.67
2019-02-18T08:10:12.342Z,2.90
2019-02-18T08:12:40.958Z,4.37
2019-02-18T08:15:10.517Z,9.33
2019-02-18T08:17:38.982Z,12.23
2019-02-18T08:20:10.111Z,16.75
2019-02-18T08:22:38.523Z,5.83
2019-02-18T08:25:13.737Z,3.20
2019-02-18T08:27:42.414Z,8.73
2019-02-18T08:30:16.762Z,4.22
2019-02-18T08:32:45.182Z,11.43
2019-02-18T08:35:13.882Z,4.33
2019-02-18T08:37:42.548Z,3.17
2019-02-18T08:40:11.477Z,1.13
2019-02-18T08:42:40.235Z,1.20
2019-02-18T08:45:12.947Z,1.17
2019-02-18T08:47:41.577Z,3.70
2019-02-18T08:50:11.842Z,0.87
2019-02-18T08:52:40.481Z,2.57
2019-02-18T08:55:11.197Z,1.80
2019-02-18T08:57:39.623Z,0.87
2019-02-18T09:00:16.267Z,5.43
2019-02-18T09:02:44.679Z,1.73
2019-02-18T09:05:13.221Z,1.43
2019-02-18T09:07:41.768Z,1.90
2019-02-18T09:10:12.444Z,2.00
2019-02-18T09:12:41.111Z,4.37
2019-02-18T09:15:10.978Z,4.33
2019-02-18T09:17:39.398Z,1.00
2019-02-18T09:20:09.467Z,5.70
2019-02-18T09:22:51.543Z,1.80
2019-02-18T09:25:21.611Z,5.53
2019-02-18T09:27:51.101Z,3.90
2019-02-18T09:30:21.587Z,4.07
2019-02-18T09:32:50.006Z,3.63
2019-02-18T09:35:18.431Z,6.67
2019-02-18T09:37:46.962Z,4.70
2019-02-18T09:40:15.471Z,3.27
2019-02-18T09:42:43.874Z,6.67
2019-02-18T09:45:14.903Z,2.40
2019-02-18T09:47:43.607Z,4.43
2019-02-18T09:50:12.313Z,2.40
2019-02-18T09:52:40.801Z,1.60
2019-02-18T09:55:10.963Z,8.50
2019-02-18T09:57:39.371Z,1.37
2019-02-18T10:00:12.271Z,1.13
2019-02-18T10:02:40.700Z,2.83
2019-02-18T10:05:09.815Z,2.27
2019-02-18T10:07:38.248Z,5.73
2019-02-18T10:10:09.216Z,5.13
2019-02-18T10:12:37.879Z,2.47
2019-02-18T10:15:09.539Z,2.00
2019-02-18T10:17:38.249Z,4.73
2019-02-18T10:20:11.612Z,3.33
2019-02-18T10:22:40.032Z,1.50
2019-02-18T10:25:11.097Z,2.07
2019-02-18T10:27:39.515Z,3.50
2019-02-18T10:30:10.675Z,2.60
2019-02-18T10:32:39.122Z,1.40
2019-02-18T10:35:10.751Z,10.70
2019-02-18T10:37:39.268Z,6.07
2019-02-18T10:40:09.828Z,2.30
2019-02-18T10:42:38.241Z,4.43
2019-02-18T10:45:13.170Z,5.60
2019-02-18T10:47:41.646Z,6.50
2019-02-18T10:50:11.507Z,6.63
2019-02-18T10:52:39.998Z,2.70
2019-02-18T10:55:10.700Z,2.07
2019-02-18T10:57:39.722Z,5.17
2019-02-18T11:00:14.646Z,5.77
2019-02-18T11:02:43.071Z,6.87
2019-02-18T11:05:11.630Z,6.63
2019-02-18T11:07:40.117Z,3.57
2019-02-18T11:10:11.576Z,5.43
2019-02-18T11:12:40.258Z,8.23
2019-02-18T11:15:11.015Z,7.80
2019-02-18T11:17:39.507Z,3.20
2019-02-18T11:20:10.757Z,2.00
2019-02-18T11:22:39.332Z,2.47
2019-02-18T11:25:13.351Z,2.07
2019-02-18T11:27:42.063Z,1.77
2019-02-18T11:30:17.832Z,3.13
2019-02-18T11:32:45.992Z,1.10
2019-02-18T11:35:14.512Z,3.30
2019-02-18T11:37:42.784Z,1.53
2019-02-18T11:40:12.455Z,3.03
2019-02-18T11:42:40.698Z,5.90
2019-02-18T11:45:10.720Z,5.57
2019-02-18T11:47:39.396Z,7.23
2019-02-18T11:50:10.259Z,5.50
2019-02-18T11:52:38.977Z,1.40
2019-02-18T11:55:10.721Z,12.87
2019-02-18T11:57:38.889Z,4.83
2019-02-18T12:00:08.780Z,1.93
2019-02-18T12:02:36.878Z,7.50
2019-02-18T12:05:05.790Z,8.37
2019-02-18T12:07:33.967Z,2.77
2019-02-18T12:10:02.075Z,6.20
2019-02-18T12:12:30.479Z,3.53
2019-02-18T12:14:58.801Z,2.43
2019-02-18T12:17:26.970Z,7.80
2019-02-18T12:19:55.113Z,5.83
2019-02-18T12:22:23.207Z,3.90
2019-02-18T12:24:51.297Z,2.60
2019-02-18T12:27:19.587Z,4.87
2019-02-18T12:29:47.707Z,3.53
2019-02-18T12:32:16.183Z,1.30
2019-02-18T12:34:44.270Z,3.17
2019-02-18T12:37:12.380Z,1.10
2019-02-18T12:39:40.468Z,1.27
2019-02-18T12:42:08.772Z,2.87
2019-02-18T12:44:37.189Z,3.40
2019-02-18T12:47:06.897Z,5.17
2019-02-18T12:49:35.427Z,7.07
2019-02-18T12:52:04.026Z,6.37
2019-02-18T12:54:32.717Z,2.50
2019-02-18T12:57:01.231Z,6.20
2019-02-18T12:59:30.116Z,4.27
2019-02-18T13:01:58.988Z,3.63
2019-02-18T13:04:27.492Z,7.30
2019-02-18T13:06:56.211Z,10.83
2019-02-18T13:09:24.627Z,6.73
2019-02-18T13:11:58.913Z,2.20
2019-02-18T13:14:23.287Z,4.23
2019-02-18T13:16:52.037Z,14.90
2019-02-18T13:19:20.497Z,6.97
2019-02-18T13:21:48.678Z,6.37
2019-02-18T13:24:17.508Z,11.20
2019-02-18T13:26:45.929Z,13.80
2019-02-18T13:29:14.355Z,2.93
2019-02-18T13:31:42.850Z,4.90
2019-02-18T13:34:11.286Z,4.23
2019-02-18T13:36:41.587Z,5.07
2019-02-18T13:39:10.087Z,5.03
2019-02-18T13:41:38.778Z,2.70
2019-02-18T13:44:07.205Z,5.13
2019-02-18T13:46:35.854Z,2.70
2019-02-18T13:49:04.330Z,3.87
2019-02-18T13:51:33.012Z,2.97
2019-02-18T13:54:01.530Z,1.00
2019-02-18T13:56:30.585Z,7.80
2019-02-18T13:58:59.019Z,6.30
2019-02-18T14:01:27.615Z,4.90
2019-02-18T14:03:56.060Z,2.80
2019-02-18T14:06:24.475Z,5.23
2019-02-18T14:08:53.180Z,5.43
2019-02-18T14:11:21.901Z,2.00
2019-02-18T14:13:50.445Z,3.73
2019-02-18T14:16:19.147Z,7.40
2019-02-18T14:18:47.649Z,1.83
2019-02-18T14:21:16.105Z,3.50
2019-02-18T14:23:44.568Z,6.43
2019-02-18T14:26:13.222Z,2.67
2019-02-18T14:28:41.859Z,0.87
2019-02-18T14:31:10.280Z,3.60
2019-02-18T14:33:38.774Z,3.20
2019-02-18T14:36:07.257Z,3.90
2019-02-18T14:38:35.695Z,5.00
2019-02-18T14:41:04.111Z,4.17
2019-02-18T14:43:32.962Z,6.87
2019-02-18T14:46:01.379Z,6.20
2019-02-18T14:48:29.811Z,12.90
2019-02-18T14:50:58.528Z,5.67
2019-02-18T14:53:26.987Z,9.37
2019-02-18T14:55:55.766Z,8.60
2019-02-18T14:58:24.254Z,2.50
2019-02-18T15:00:53.104Z,7.93
2019-02-18T15:03:21.674Z,1.90
2019-02-18T15:05:51.622Z,9.10
2019-02-18T15:08:20.222Z,8.93
2019-02-18T15:10:48.631Z,4.67
2019-02-18T15:13:17.054Z,6.93
2019-02-18T15:15:47.801Z,7.57
2019-02-18T15:18:16.513Z,14.50
2019-02-18T15:20:45.042Z,5.33
2019-02-18T15:23:13.569Z,1.30
2019-02-18T15:25:42.043Z,9.27
2019-02-18T15:28:10.455Z,2.33
2019-02-18T15:30:39.154Z,6.50
2019-02-18T15:33:07.581Z,6.47
2019-02-18T15:35:36.020Z,2.90
2019-02-18T15:38:04.496Z,2.60
2019-02-18T15:40:32.604Z,4.03
2019-02-18T15:43:00.673Z,9.60
2019-02-18T15:45:28.837Z,9.30
2019-02-18T15:48:01.813Z,7.70
2019-02-18T15:50:27.336Z,4.40
2019-02-18T15:52:55.794Z,4.90
2019-02-18T15:55:24.231Z,6.90
2019-02-18T15:57:52.657Z,4.87
2019-02-18T16:00:24.279Z,8.83
2019-02-18T16:02:52.697Z,6.00
2019-02-18T16:05:21.294Z,15.90
2019-02-18T16:07:49.960Z,3.70
2019-02-18T16:10:18.393Z,8.73
2019-02-18T16:12:50.973Z,5.80
2019-02-18T16:15:17.054Z,4.70
2019-02-18T16:17:46.005Z,5.47
2019-02-18T16:20:14.876Z,4.83
2019-02-18T16:22:43.350Z,3.90
2019-02-18T16:25:17.512Z,3.20
2019-02-18T16:27:45.940Z,21.90
2019-02-18T16:30:15.777Z,7.27
2019-02-18T16:32:44.475Z,13.47
2019-02-18T16:35:13.226Z,5.90
2019-02-18T16:37:42.029Z,6.33
2019-02-18T16:40:16.113Z,15.03
2019-02-18T16:42:44.546Z,15.17
2019-02-18T16:45:14.872Z,16.27
2019-02-18T16:47:43.319Z,12.07
2019-02-18T16:50:12.091Z,6.77
2019-02-18T16:52:40.789Z,17.10
2019-02-18T16:55:12.368Z,7.70
2019-02-18T16:57:41.051Z,8.90
2019-02-18T17:00:17.099Z,3.07
2019-02-18T17:02:45.563Z,18.83
2019-02-18T17:05:14.260Z,18.23
2019-02-18T17:07:42.979Z,6.03
2019-02-18T17:10:11.539Z,9.70
2019-02-18T17:12:39.969Z,11.67
2019-02-18T17:15:10.820Z,13.33
2019-02-18T17:17:39.243Z,16.90
2019-02-18T17:20:08.661Z,7.37
2019-02-18T17:22:37.071Z,14.73
2019-02-18T17:25:09.138Z,6.00
2019-02-18T17:27:37.558Z,5.40
2019-02-18T17:30:09.590Z,24.70
2019-02-18T17:32:38.095Z,11.40
2019-02-18T17:35:10.029Z,5.80
2019-02-18T17:37:38.592Z,8.50
2019-02-18T17:40:10.376Z,7.70
2019-02-18T17:42:38.823Z,9.00
2019-02-18T17:45:10.210Z,8.80
2019-02-18T17:47:38.638Z,14.87
2019-02-18T17:50:12.623Z,18.33
2019-02-18T17:52:41.110Z,6.57
2019-02-18T17:55:12.040Z,16.73
2019-02-18T17:57:41.005Z,8.57
2019-02-18T18:00:12.356Z,22.50
2019-02-18T18:02:40.872Z,11.80
2019-02-18T18:05:10.286Z,9.60
2019-02-18T18:07:38.808Z,26.97
2019-02-18T18:10:12.409Z,9.63
2019-02-18T18:12:40.981Z,18.70
2019-02-18T18:15:11.762Z,16.43
2019-02-18T18:17:40.213Z,12.50
2019-02-18T18:20:13.199Z,19.10
2019-02-18T18:22:41.630Z,22.30
2019-02-18T18:25:14.363Z,30.13
2019-02-18T18:27:42.883Z,30.93
2019-02-18T18:30:14.008Z,39.70
2019-02-18T18:32:42.440Z,32.83
2019-02-18T18:35:12.880Z,30.53
2019-02-18T18:37:41.476Z,33.88
2019-02-18T18:40:14.890Z,24.20
2019-02-18T18:42:43.410Z,19.70
2019-02-18T18:45:15.607Z,38.20
2019-02-18T18:47:44.120Z,33.30
2019-02-18T18:50:17.796Z,20.40
2019-02-18T18:52:46.506Z,21.57
2019-02-18T18:55:15.255Z,19.73
2019-02-18T18:57:43.917Z,13.37
2019-02-18T19:00:20.022Z,15.53
2019-02-18T19:02:48.461Z,23.83
2019-02-18T19:05:17.111Z,11.33
2019-02-18T19:07:45.601Z,15.33
2019-02-18T19:10:14.037Z,15.70
2019-02-18T19:12:42.687Z,15.30
2019-02-18T19:15:15.315Z,16.27
2019-02-18T19:17:43.758Z,31.45
2019-02-18T19:20:12.603Z,31.65
2019-02-18T19:22:41.061Z,19.27
2019-02-18T19:25:11.209Z,36.85
2019-02-18T19:27:39.885Z,33.85
2019-02-18T19:30:29.486Z,29.57
2019-02-18T19:32:58.190Z,38.15
2019-02-18T19:35:27.818Z,21.90
2019-02-18T19:37:56.504Z,15.48
2019-02-18T19:40:24.939Z,23.00
2019-02-18T19:42:53.391Z,15.98
2019-02-18T19:45:23.435Z,22.48
2019-02-18T19:47:51.934Z,17.62
2019-02-18T19:50:20.449Z,16.52
2019-02-18T19:52:48.950Z,11.30
2019-02-18T19:55:17.457Z,15.55
2019-02-18T19:57:45.900Z,11.65
2019-02-18T20:00:19.308Z,12.40
2019-02-18T20:02:48.300Z,15.63
2019-02-18T20:05:16.773Z,18.80
2019-02-18T20:07:45.225Z,14.63
2019-02-18T20:10:13.722Z,13.20
2019-02-18T20:12:42.166Z,16.55
2019-02-18T20:15:13.296Z,12.20
2019-02-18T20:17:41.731Z,20.35
2019-02-18T20:20:14.981Z,10.70
2019-02-18T20:22:43.497Z,11.03
2019-02-18T20:25:12.603Z,9.55
2019-02-18T20:27:41.042Z,19.75
2019-02-18T20:30:14.424Z,16.12
2019-02-18T20:32:42.882Z,16.02
2019-02-18T20:35:11.620Z,12.28
2019-02-18T20:37:40.308Z,10.38
2019-02-18T20:40:10.588Z,10.13
2019-02-18T20:42:39.386Z,10.72
2019-02-18T20:45:10.934Z,10.80
2019-02-18T20:47:39.379Z,18.57
2019-02-18T20:50:10.445Z,13.70
2019-02-18T20:52:38.863Z,19.25
2019-02-18T20:55:09.857Z,19.45
2019-02-18T20:57:38.695Z,16.73
2019-02-18T21:00:17.286Z,15.68
2019-02-18T21:02:46.006Z,16.67
2019-02-18T21:05:14.483Z,11.95
2019-02-18T21:07:42.904Z,9.60
2019-02-18T21:10:38.566Z,23.87
2019-02-18T21:13:07.046Z,15.18
2019-02-18T21:15:35.491Z,13.68
2019-02-18T21:18:04.007Z,14.15
2019-02-18T21:20:32.773Z,7.42
2019-02-18T21:23:01.417Z,7.10
2019-02-18T21:25:29.897Z,7.25
2019-02-18T21:27:58.299Z,8.93
2019-02-18T21:30:26.945Z,8.95
2019-02-18T21:32:55.422Z,11.35
2019-02-18T21:35:24.226Z,10.32
2019-02-18T21:37:52.952Z,5.58
2019-02-18T21:40:21.410Z,7.87
2019-02-18T21:42:50.082Z,13.05
2019-02-18T21:45:18.515Z,11.22
2019-02-18T21:47:46.926Z,6.97
2019-02-18T21:50:15.349Z,3.45
2019-02-18T21:52:43.762Z,8.90
2019-02-18T21:55:13.280Z,7.50
2019-02-18T21:57:42.007Z,8.30
2019-02-18T22:00:17.729Z,3.60
2019-02-18T22:02:46.207Z,5.80
2019-02-18T22:05:15.078Z,4.20
2019-02-18T22:07:43.587Z,4.08
2019-02-18T22:10:12.041Z,3.60
2019-02-18T22:12:40.453Z,7.15
2019-02-18T22:15:11.362Z,4.17
2019-02-18T22:17:40.079Z,24.95
2019-02-18T22:20:12.675Z,5.67
2019-02-18T22:22:41.400Z,3.25
2019-02-18T22:25:13.408Z,10.85
2019-02-18T22:28:01.210Z,8.33
2019-02-18T22:30:29.712Z,6.28
2019-02-18T22:32:58.649Z,6.92
2019-02-18T22:35:27.346Z,6.97
2019-02-18T22:37:55.797Z,3.83
2019-02-18T22:40:24.215Z,8.10
2019-02-18T22:42:52.701Z,6.90
2019-02-18T22:45:21.123Z,9.88
2019-02-18T22:47:49.551Z,6.22
2019-02-18T22:50:18.538Z,5.97
2019-02-18T22:52:47.005Z,4.08
2019-02-18T22:55:15.417Z,6.62
2019-02-18T22:57:44.117Z,7.95
2019-02-18T23:00:18.135Z,5.58
2019-02-18T23:02:46.552Z,9.48
2019-02-18T23:05:15.491Z,8.00
2019-02-18T23:07:44.128Z,5.65
2019-02-18T23:10:12.606Z,12.00
2019-02-18T23:12:41.039Z,4.72
2019-02-18T23:15:10.272Z,10.88
2019-02-18T23:17:38.689Z,4.78
2019-02-18T23:20:07.174Z,4.80
2019-02-18T23:22:35.778Z,5.67
2019-02-18T23:25:04.258Z,5.35
2019-02-18T23:27:32.906Z,4.10
2019-02-18T23:30:01.618Z,5.03
2019-02-18T23:32:30.043Z,4.72
2019-02-18T23:34:58.458Z,4.65
2019-02-18T23:37:27.100Z,7.05
2019-02-18T23:39:55.555Z,13.72
2019-02-18T23:42:23.977Z,5.40
2019-02-18T23:44:59.067Z,5.53
2019-02-18T23:47:23.054Z,5.20
2019-02-18T23:49:51.717Z,6.75
2019-02-18T23:52:20.151Z,5.00
2019-02-18T23:54:48.810Z,4.42
2019-02-18T23:57:17.481Z,3.02
2019-02-18T23:59:46.125Z,2.60
